Darwin International Airport
YPDN : now visible

Airfield :











YOU CAN JOIN US ON...

 
LOGIN :

Register | Disclaimer

   EN    FR    IT 

 









Legend :    VFR   Marginal VFR   IFR   Intensive IFR   Very Intensive IFR
Visi :
Ceiling :
>= 8 km
>= 3000ft
5 to 8 km
1000 to 3000 ft
1500m to 5 km
500 to 1000 ft
800 to 1500m
200 to 500 ft
< 800m
< 200 ft
Symbols :   Thunderstorms  Fog  Heavy snow  Heavy precipitations  Wind > 20 kt






- Airport Elevation : 103 ft
- IATA code : DRW


YPDN - Darwin International

CURRENT METAR :
  • 150400Z AUTO 09006KT 040V110 9999 // SCT045 BKN053 32/20 Q1009

EXPIRED METARs :
  • 150330Z 07007KT 9999 SCT041 32/21 Q1009
  • 150300Z AUTO 07007KT 9999 // SCT039 32/21 Q1010
  • 150230Z 07007KT 9999 SCT035 32/22 Q1011
  • 150200Z 05008KT 020V080 9999 SCT035 31/21 Q1011
  • 150130Z 06008KT 9999 FEW031 31/22 Q1012

TAF TAF YPDN
Valid from the 15 at 03:00 until the 16 at 06:00 UTC


150207Z 1503/1606 07007KT 9999 FEW030
FM150500 34008KT 9999 FEW040
FM151000 VRB03KT 9999 FEW025
FM151500 09004KT 9999 SCT020
FM160000 07007KT 9999 FEW025
PROB30
TEMPO 1515/1522 VRB20G35KT 1000 TSRA BKN010 SCT020CB
YBBB FIR / Oceania



MET'MAP, your aeronautical weather chart ! - Copyright ORBIFLY December 2007 - Disclaimer

ORBIFLY MET'MAP TEAM :

Programming & Development : Alexandra Zaïnal
Concept & original design : Baudouin d'Aumeries
Assistance for programming : Marc-Olivier Méhu
Technical & hardware support : Manuel Goepfert

Contact : metmap@orbifly.com




SOURCES & CREDITS :

   NOAA       Earth
Advisory